createdAt,value
2022-10-04T00:01:44.131Z,9.25
2022-10-04T00:04:21.422Z,10.55
2022-10-04T00:07:14.604Z,11.70
2022-10-04T00:09:52.344Z,11.30
2022-10-04T00:12:21.888Z,10.32
2022-10-04T00:14:51.053Z,9.48
2022-10-04T00:17:28.197Z,9.55
2022-10-04T00:19:56.337Z,10.07
2022-10-04T00:22:29.129Z,9.70
2022-10-04T00:25:09.944Z,9.45
2022-10-04T00:27:38.847Z,9.57
2022-10-04T00:30:07.083Z,10.48
2022-10-04T00:32:40.503Z,9.20
2022-10-04T00:35:26.463Z,9.07
2022-10-04T00:38:29.736Z,8.73
2022-10-04T00:41:04.607Z,9.18
2022-10-04T00:43:36.867Z,8.63
2022-10-04T00:46:21.408Z,9.13
2022-10-04T00:48:59.076Z,9.55
2022-10-04T00:51:34.434Z,9.35
2022-10-04T00:54:20.224Z,8.90
2022-10-04T00:56:52.516Z,7.55
2022-10-04T00:59:37.579Z,8.05
2022-10-04T01:02:28.712Z,8.15
2022-10-04T01:07:32.810Z,8.38
2022-10-04T01:10:05.354Z,7.95
2022-10-04T01:12:45.360Z,7.40
2022-10-04T01:15:26.855Z,7.05
2022-10-04T01:18:14.395Z,7.22
2022-10-04T01:20:54.441Z,7.05
2022-10-04T01:23:51.784Z,6.53
2022-10-04T01:26:32.293Z,6.80
2022-10-04T01:29:18.302Z,6.28
2022-10-04T01:31:48.825Z,6.90
2022-10-04T01:34:22.210Z,6.18
2022-10-04T01:36:52.598Z,5.68
2022-10-04T01:39:23.123Z,5.53
2022-10-04T01:42:02.592Z,5.18
2022-10-04T01:44:55.368Z,5.63
2022-10-04T01:47:46.979Z,5.75
2022-10-04T01:50:20.448Z,5.93
2022-10-04T01:52:52.970Z,5.05
2022-10-04T01:55:25.793Z,5.38
2022-10-04T01:58:00.827Z,5.50
2022-10-04T02:00:29.378Z,4.55
2022-10-04T02:03:15.337Z,5.40
2022-10-04T02:05:49.450Z,5.25
2022-10-04T02:08:22.099Z,5.25
2022-10-04T02:10:51.509Z,5.53
2022-10-04T02:13:19.264Z,5.43
2022-10-04T02:15:48.395Z,5.90
2022-10-04T02:18:20.656Z,5.10
2022-10-04T02:20:50.526Z,5.55
2022-10-04T02:23:20.579Z,5.90
2022-10-04T02:25:48.323Z,5.95
2022-10-04T02:28:18.339Z,6.40
2022-10-04T02:31:09.654Z,6.90
2022-10-04T02:36:10.769Z,6.63
2022-10-04T02:38:44.416Z,6.25
2022-10-04T02:41:27.008Z,5.70
2022-10-04T02:48:05.803Z,5.93
2022-10-04T02:50:55.672Z,6.13
2022-10-04T02:53:46.128Z,7.03
2022-10-04T02:56:13.853Z,7.53
2022-10-04T02:58:42.304Z,6.30
2022-10-04T03:01:17.973Z,5.90
2022-10-04T03:03:47.463Z,5.85
2022-10-04T03:06:19.162Z,7.55
2022-10-04T03:08:51.542Z,6.40
2022-10-04T03:11:22.713Z,6.07
2022-10-04T03:13:52.891Z,6.40
2022-10-04T03:16:21.769Z,6.37
2022-10-04T03:18:51.852Z,6.63
2022-10-04T03:21:21.766Z,6.40
2022-10-04T03:23:51.778Z,6.38
2022-10-04T03:26:29.111Z,6.28
2022-10-04T03:28:58.897Z,6.38
2022-10-04T03:31:27.892Z,6.65
2022-10-04T03:33:57.309Z,6.45
2022-10-04T03:36:26.441Z,6.63
2022-10-04T03:38:56.909Z,7.80
2022-10-04T03:41:26.042Z,6.40
2022-10-04T03:43:56.078Z,6.57
2022-10-04T03:46:25.236Z,6.55
2022-10-04T03:48:54.438Z,6.63
2022-10-04T03:51:26.402Z,6.47
2022-10-04T03:53:57.394Z,7.00
2022-10-04T03:59:07.433Z,6.53
2022-10-04T04:01:45.213Z,6.65
2022-10-04T04:04:24.959Z,6.57
2022-10-04T04:07:01.439Z,7.45
2022-10-04T04:09:45.800Z,7.68
2022-10-04T04:12:25.000Z,7.35
2022-10-04T04:14:53.845Z,7.22
2022-10-04T04:17:30.001Z,7.30
2022-10-04T04:20:07.410Z,6.70
2022-10-04T04:22:36.377Z,6.70
2022-10-04T04:25:09.136Z,6.72
2022-10-04T04:27:40.606Z,6.57
2022-10-04T04:30:09.190Z,6.57
2022-10-04T04:32:45.359Z,7.13
2022-10-04T04:35:33.162Z,6.57
2022-10-04T04:38:11.606Z,7.32
2022-10-04T04:40:39.027Z,6.50
2022-10-04T04:43:06.823Z,6.82
2022-10-04T04:45:36.253Z,6.25
2022-10-04T04:48:05.915Z,6.75
2022-10-04T04:50:36.646Z,7.28
2022-10-04T04:53:27.688Z,6.32
2022-10-04T04:56:05.002Z,6.15
2022-10-04T04:58:38.165Z,6.05
2022-10-04T05:01:28.293Z,6.75
2022-10-04T05:04:14.157Z,5.72
2022-10-04T05:07:06.354Z,4.80
2022-10-04T05:09:36.099Z,5.22
2022-10-04T05:12:18.072Z,3.75
2022-10-04T05:14:49.048Z,3.60
2022-10-04T05:17:20.961Z,3.50
2022-10-04T05:19:48.617Z,3.58
2022-10-04T05:22:22.378Z,3.35
2022-10-04T05:24:54.579Z,3.33
2022-10-04T05:27:33.148Z,2.90
2022-10-04T05:30:31.125Z,3.05
2022-10-04T05:33:03.555Z,2.60
2022-10-04T05:35:57.496Z,2.58
2022-10-04T05:38:57.804Z,2.10
2022-10-04T05:41:42.058Z,2.22
2022-10-04T05:44:31.575Z,2.20
2022-10-04T05:47:05.367Z,2.22
2022-10-04T05:49:44.309Z,2.92
2022-10-04T05:52:25.254Z,2.45
2022-10-04T05:55:17.873Z,2.38
2022-10-04T05:58:18.375Z,2.28
2022-10-04T06:01:02.702Z,2.40
2022-10-04T06:03:58.028Z,2.20
2022-10-04T06:07:00.633Z,2.35
2022-10-04T06:09:39.766Z,2.53
2022-10-04T06:12:13.359Z,2.20
2022-10-04T06:14:49.899Z,2.33
2022-10-04T06:17:26.216Z,2.85
2022-10-04T06:20:12.519Z,3.33
2022-10-04T06:22:46.016Z,2.22
2022-10-04T06:25:31.523Z,2.95
2022-10-04T06:28:07.648Z,2.10
2022-10-04T06:31:04.174Z,2.20
2022-10-04T06:33:45.982Z,2.35
2022-10-04T06:36:31.852Z,2.40
2022-10-04T06:39:13.134Z,2.05
2022-10-04T06:42:18.753Z,2.00
2022-10-04T06:45:10.539Z,2.88
2022-10-04T06:47:48.675Z,1.90
2022-10-04T06:50:41.074Z,2.00
2022-10-04T06:53:33.081Z,2.72
2022-10-04T06:56:31.377Z,3.17
2022-10-04T06:59:18.602Z,2.05
2022-10-04T07:02:04.171Z,1.95
2022-10-04T07:05:06.487Z,1.73
2022-10-04T07:07:41.982Z,1.73
2022-10-04T07:10:23.719Z,1.50
2022-10-04T07:13:02.778Z,1.90
2022-10-04T07:15:45.257Z,2.40
2022-10-04T07:18:19.734Z,2.03
2022-10-04T07:20:49.024Z,2.25
2022-10-04T07:23:27.573Z,1.77
2022-10-04T07:26:01.647Z,1.60
2022-10-04T07:28:52.388Z,1.70
2022-10-04T07:31:28.098Z,1.33
2022-10-04T07:34:02.379Z,1.95
2022-10-04T07:36:51.915Z,1.50
2022-10-04T07:39:47.623Z,1.77
2022-10-04T07:42:21.053Z,1.67
2022-10-04T07:45:17.667Z,1.60
2022-10-04T07:47:45.178Z,2.50
2022-10-04T07:50:35.368Z,2.13
2022-10-04T07:53:15.323Z,1.97
2022-10-04T07:55:52.707Z,1.75
2022-10-04T07:58:26.383Z,1.73
2022-10-04T08:00:53.893Z,1.70
2022-10-04T08:03:33.310Z,1.60
2022-10-04T08:06:23.821Z,1.63
2022-10-04T08:09:02.827Z,1.45
2022-10-04T08:11:44.989Z,1.65
2022-10-04T08:14:45.665Z,1.20
2022-10-04T08:17:24.196Z,1.95
2022-10-04T08:20:02.365Z,1.55
2022-10-04T08:22:48.603Z,1.60
2022-10-04T08:25:28.284Z,1.17
2022-10-04T08:28:53.698Z,1.33
2022-10-04T08:31:39.371Z,1.42
2022-10-04T08:34:06.971Z,1.42
2022-10-04T08:36:56.172Z,1.20
2022-10-04T08:39:55.578Z,1.40
2022-10-04T08:42:28.934Z,1.20
2022-10-04T08:45:17.019Z,1.15
2022-10-04T08:48:22.552Z,1.00
2022-10-04T08:51:14.258Z,1.10
2022-10-04T08:54:13.548Z,1.08
2022-10-04T08:57:22.555Z,1.10
2022-10-04T09:00:08.676Z,1.52
2022-10-04T09:02:54.600Z,0.90
2022-10-04T09:05:34.368Z,1.13
2022-10-04T09:08:20.775Z,0.80
2022-10-04T09:11:21.748Z,0.63
2022-10-04T09:14:04.418Z,0.80
2022-10-04T09:16:55.786Z,0.95
2022-10-04T09:19:31.748Z,0.70
2022-10-04T09:22:11.566Z,1.00
2022-10-04T09:25:12.885Z,1.23
2022-10-04T09:31:08.958Z,0.90
2022-10-04T09:33:53.467Z,1.10
2022-10-04T09:36:42.777Z,1.45
2022-10-04T09:39:29.961Z,2.08
2022-10-04T09:42:39.629Z,1.42
2022-10-04T09:45:07.508Z,1.17
2022-10-04T09:48:16.997Z,1.27
2022-10-04T09:51:08.301Z,1.20
2022-10-04T09:53:46.562Z,1.10
2022-10-04T09:56:43.120Z,1.00
2022-10-04T09:59:39.829Z,1.50
2022-10-04T10:02:29.233Z,1.45
2022-10-04T10:05:35.265Z,1.58
2022-10-04T10:08:28.435Z,2.72
2022-10-04T10:11:34.619Z,1.85
2022-10-04T10:14:19.721Z,1.70
2022-10-04T10:16:53.463Z,1.88
2022-10-04T10:20:01.573Z,1.88
2022-10-04T10:22:53.850Z,2.22
2022-10-04T10:25:35.858Z,2.33
2022-10-04T10:28:48.732Z,2.03
2022-10-04T10:31:27.935Z,2.30
2022-10-04T10:34:13.655Z,2.40
2022-10-04T10:37:18.925Z,1.95
2022-10-04T10:39:56.671Z,1.80
2022-10-04T10:42:42.817Z,1.90
2022-10-04T10:45:26.638Z,1.88
2022-10-04T10:48:20.084Z,1.50
2022-10-04T10:51:12.198Z,1.55
2022-10-04T10:54:17.067Z,1.17
2022-10-04T10:56:59.483Z,1.90
2022-10-04T10:59:57.150Z,1.88
2022-10-04T11:02:49.875Z,1.13
2022-10-04T11:05:27.015Z,1.15
2022-10-04T11:08:00.356Z,1.20
2022-10-04T11:10:53.848Z,1.10
2022-10-04T11:13:50.346Z,1.13
2022-10-04T11:16:38.824Z,1.02
2022-10-04T11:19:29.385Z,0.90
2022-10-04T11:22:11.627Z,1.10
2022-10-04T11:24:45.051Z,1.00
2022-10-04T11:27:32.085Z,1.30
2022-10-04T11:30:23.545Z,1.20
2022-10-04T11:32:53.745Z,1.48
2022-10-04T11:35:44.977Z,1.10
2022-10-04T11:38:30.163Z,1.42
2022-10-04T11:41:13.664Z,1.52
2022-10-04T11:44:16.407Z,1.27
2022-10-04T11:47:16.018Z,1.17
2022-10-04T11:50:20.481Z,1.40
2022-10-04T11:53:03.183Z,1.15
2022-10-04T11:55:54.404Z,1.45
2022-10-04T11:58:42.821Z,1.48
2022-10-04T12:01:40.706Z,1.50
2022-10-04T12:04:37.173Z,1.27
2022-10-04T12:07:23.180Z,1.40
2022-10-04T12:09:50.545Z,1.17
2022-10-04T12:12:51.533Z,1.08
2022-10-04T12:15:45.342Z,1.30
2022-10-04T12:18:43.929Z,1.25
2022-10-04T12:21:18.165Z,1.10
2022-10-04T12:24:29.781Z,1.38
2022-10-04T12:27:21.879Z,1.17
2022-10-04T12:30:00.141Z,1.50
2022-10-04T12:32:52.219Z,1.48
2022-10-04T12:35:40.655Z,1.50
2022-10-04T12:38:14.518Z,1.33
2022-10-04T12:40:56.187Z,1.00
2022-10-04T12:43:43.164Z,1.40
2022-10-04T12:46:39.669Z,1.23
2022-10-04T12:49:31.854Z,1.30
2022-10-04T12:51:59.265Z,1.42
2022-10-04T12:54:26.631Z,1.45
2022-10-04T12:57:02.604Z,1.70
2022-10-04T12:59:32.811Z,1.33
2022-10-04T13:02:39.216Z,1.20
2022-10-04T13:05:18.135Z,1.40
2022-10-04T13:08:10.144Z,1.20
2022-10-04T13:11:03.233Z,1.70
2022-10-04T13:13:36.780Z,1.50
2022-10-04T13:19:34.940Z,1.50
2022-10-04T13:22:55.284Z,1.70
2022-10-04T13:25:30.921Z,1.52
2022-10-04T13:28:05.781Z,1.45
2022-10-04T13:30:49.884Z,1.67
2022-10-04T13:33:45.420Z,1.25
2022-10-04T13:36:26.903Z,1.80
2022-10-04T13:39:09.526Z,1.75
2022-10-04T13:41:43.432Z,1.55
2022-10-04T13:44:20.932Z,1.77
2022-10-04T13:47:00.928Z,2.35
2022-10-04T13:49:43.354Z,1.55
2022-10-04T13:52:58.492Z,1.60
2022-10-04T13:55:50.453Z,1.35
2022-10-04T13:58:41.165Z,1.50
2022-10-04T14:01:37.934Z,1.17
2022-10-04T14:04:23.811Z,1.77
2022-10-04T14:07:03.088Z,1.65
2022-10-04T14:09:46.835Z,1.35
2022-10-04T14:12:30.839Z,1.45
2022-10-04T14:15:19.629Z,1.08
2022-10-04T14:18:12.606Z,1.40
2022-10-04T14:21:01.503Z,1.55
2022-10-04T14:24:02.803Z,1.10
2022-10-04T14:26:55.931Z,0.93
2022-10-04T14:29:54.557Z,1.63
2022-10-04T14:32:36.669Z,1.30
2022-10-04T14:35:12.692Z,1.05
2022-10-04T14:38:01.503Z,1.25
2022-10-04T14:40:56.375Z,1.48
2022-10-04T14:44:20.972Z,1.30
2022-10-04T14:46:56.984Z,1.55
2022-10-04T14:49:30.866Z,1.30
2022-10-04T14:52:04.589Z,1.40
2022-10-04T14:55:04.440Z,1.58
2022-10-04T14:57:56.398Z,1.10
2022-10-04T15:00:31.325Z,1.55
2022-10-04T15:03:17.590Z,1.20
2022-10-04T15:05:55.094Z,1.25
2022-10-04T15:08:22.490Z,1.50
2022-10-04T15:10:53.560Z,1.20
2022-10-04T15:13:39.445Z,1.33
2022-10-04T15:16:24.713Z,1.38
2022-10-04T15:19:31.400Z,1.98
2022-10-04T15:22:07.493Z,1.40
2022-10-04T15:24:47.897Z,1.63
2022-10-04T15:27:27.233Z,1.70
2022-10-04T15:30:21.627Z,1.35
2022-10-04T15:33:27.359Z,1.52
2022-10-04T15:35:57.776Z,1.65
2022-10-04T15:38:32.824Z,1.38
2022-10-04T15:41:06.360Z,1.40
2022-10-04T15:43:43.718Z,1.10
2022-10-04T15:46:38.718Z,1.17
2022-10-04T15:49:32.936Z,1.75
2022-10-04T15:52:18.467Z,1.30
2022-10-04T15:55:23.161Z,1.25
2022-10-04T15:58:19.969Z,1.60
2022-10-04T16:00:53.792Z,1.30
2022-10-04T16:03:58.592Z,1.30
2022-10-04T16:06:32.776Z,1.50
2022-10-04T16:09:24.844Z,1.52
2022-10-04T16:12:07.215Z,1.27
2022-10-04T16:14:37.428Z,1.33
2022-10-04T16:17:41.754Z,1.40
2022-10-04T16:20:15.569Z,1.30
2022-10-04T16:23:32.337Z,2.05
2022-10-04T16:26:19.564Z,1.92
2022-10-04T16:29:24.468Z,1.23
2022-10-04T16:32:10.531Z,1.20
2022-10-04T16:35:00.308Z,1.95
2022-10-04T16:37:31.465Z,1.45
2022-10-04T16:40:24.142Z,1.65
2022-10-04T16:42:57.129Z,1.80
2022-10-04T16:46:02.308Z,1.10
2022-10-04T16:48:41.842Z,1.60
2022-10-04T16:51:18.633Z,1.25
2022-10-04T16:54:28.960Z,1.30
2022-10-04T16:56:58.036Z,1.55
2022-10-04T16:59:38.086Z,1.50
2022-10-04T17:02:49.145Z,1.35
2022-10-04T17:05:20.171Z,1.77
2022-10-04T17:10:48.615Z,1.48
2022-10-04T17:13:37.281Z,2.00
2022-10-04T17:16:29.311Z,1.25
2022-10-04T17:19:20.798Z,1.00
2022-10-04T17:22:16.067Z,1.48
2022-10-04T17:25:02.405Z,1.23
2022-10-04T17:27:57.755Z,1.27
2022-10-04T17:30:28.121Z,1.40
2022-10-04T17:32:58.192Z,1.40
2022-10-04T17:35:57.300Z,1.23
2022-10-04T17:38:51.305Z,1.40
2022-10-04T17:42:07.590Z,1.42
2022-10-04T17:44:53.622Z,1.45
2022-10-04T17:48:03.383Z,1.40
2022-10-04T17:51:04.993Z,1.48
2022-10-04T17:53:55.355Z,2.33
2022-10-04T17:56:33.267Z,1.40
2022-10-04T17:59:12.444Z,1.58
2022-10-04T18:01:51.934Z,1.83
2022-10-04T18:04:27.996Z,1.45
2022-10-04T18:07:04.295Z,2.15
2022-10-04T18:09:43.438Z,1.23
2022-10-04T18:12:22.786Z,1.52
2022-10-04T18:15:07.287Z,1.48
2022-10-04T18:17:40.210Z,1.42
2022-10-04T18:20:27.085Z,1.77
2022-10-04T18:23:17.965Z,1.85
2022-10-04T18:25:46.003Z,1.48
2022-10-04T18:28:20.867Z,1.58
2022-10-04T18:31:05.844Z,1.77
2022-10-04T18:33:50.257Z,2.20
2022-10-04T18:36:24.552Z,1.67
2022-10-04T18:39:14.372Z,1.90
2022-10-04T18:41:55.101Z,2.17
2022-10-04T18:44:30.078Z,2.33
2022-10-04T18:47:00.140Z,1.70
2022-10-04T18:49:31.117Z,1.70
2022-10-04T18:55:04.391Z,2.45
2022-10-04T18:58:03.271Z,2.00
2022-10-04T19:01:01.992Z,2.13
2022-10-04T19:03:41.053Z,1.67
2022-10-04T19:06:29.424Z,1.60
2022-10-04T19:09:21.303Z,2.03
2022-10-04T19:12:13.109Z,1.45
2022-10-04T19:14:53.547Z,1.52
2022-10-04T19:17:32.199Z,1.55
2022-10-04T19:20:32.017Z,1.90
2022-10-04T19:23:39.269Z,2.05
2022-10-04T19:26:33.204Z,1.45
2022-10-04T19:29:15.637Z,1.58
2022-10-04T19:32:01.940Z,1.83
2022-10-04T19:34:59.650Z,1.58
2022-10-04T19:37:34.273Z,1.98
2022-10-04T19:40:28.559Z,1.77
2022-10-04T19:43:08.330Z,1.60
2022-10-04T19:45:46.307Z,1.88
2022-10-04T19:48:25.571Z,1.65
2022-10-04T19:51:08.683Z,1.75
2022-10-04T19:53:45.199Z,1.90
2022-10-04T19:56:18.770Z,2.17
2022-10-04T19:59:16.493Z,2.40
2022-10-04T20:01:44.902Z,2.05
2022-10-04T20:04:33.676Z,1.63
2022-10-04T20:07:04.529Z,1.70
2022-10-04T20:09:49.524Z,2.10
2022-10-04T20:12:35.979Z,2.17
2022-10-04T20:15:14.886Z,2.50
2022-10-04T20:17:44.133Z,1.58
2022-10-04T20:20:37.071Z,1.50
2022-10-04T20:23:07.677Z,1.92
2022-10-04T20:25:44.346Z,1.35
2022-10-04T20:28:26.816Z,1.80
2022-10-04T20:31:00.853Z,2.08
2022-10-04T20:33:34.428Z,1.50
2022-10-04T20:36:09.014Z,1.80
2022-10-04T20:38:49.372Z,1.63
2022-10-04T20:41:29.051Z,1.50
2022-10-04T20:43:59.134Z,1.52
2022-10-04T20:46:29.917Z,2.20
2022-10-04T20:49:15.716Z,1.48
2022-10-04T20:51:48.572Z,1.65
2022-10-04T20:54:20.256Z,1.35
2022-10-04T20:56:49.999Z,1.13
2022-10-04T20:59:18.293Z,1.25
2022-10-04T21:02:05.170Z,1.45
2022-10-04T21:04:33.606Z,1.40
2022-10-04T21:07:06.055Z,1.55
2022-10-04T21:09:36.013Z,1.42
2022-10-04T21:12:05.024Z,2.47
2022-10-04T21:14:37.759Z,1.85
2022-10-04T21:17:24.312Z,1.80
2022-10-04T21:19:52.010Z,1.60
2022-10-04T21:22:31.209Z,2.00
2022-10-04T21:25:01.708Z,2.22
2022-10-04T21:27:36.438Z,1.80
2022-10-04T21:30:07.279Z,1.83
2022-10-04T21:35:05.256Z,2.22
2022-10-04T21:37:33.469Z,1.85
2022-10-04T21:40:01.231Z,1.92
2022-10-04T21:42:28.739Z,2.75
2022-10-04T21:44:56.336Z,2.33
2022-10-04T21:47:23.953Z,1.83
2022-10-04T21:49:52.112Z,2.00
2022-10-04T21:52:19.521Z,2.05
2022-10-04T21:54:46.977Z,2.17
2022-10-04T21:57:14.569Z,2.15
2022-10-04T21:59:42.057Z,1.65
2022-10-04T22:02:09.646Z,2.17
2022-10-04T22:04:38.243Z,2.78
2022-10-04T22:07:05.983Z,1.95
2022-10-04T22:09:34.534Z,1.60
2022-10-04T22:12:01.933Z,1.70
2022-10-04T22:14:29.369Z,3.25
2022-10-04T22:16:56.838Z,1.55
2022-10-04T22:19:24.237Z,1.80
2022-10-04T22:21:52.821Z,1.95
2022-10-04T22:24:20.987Z,1.70
2022-10-04T22:26:49.220Z,2.60
2022-10-04T22:29:18.877Z,1.63
2022-10-04T22:31:50.721Z,1.98
2022-10-04T22:34:22.962Z,1.80
2022-10-04T22:36:53.970Z,1.88
2022-10-04T22:39:21.709Z,1.70
2022-10-04T22:41:55.487Z,1.90
2022-10-04T22:44:26.061Z,1.63
2022-10-04T22:46:56.039Z,1.85
2022-10-04T22:49:29.517Z,1.42
2022-10-04T22:51:58.947Z,1.40
2022-10-04T22:54:32.034Z,2.13
2022-10-04T22:56:59.713Z,1.63
2022-10-04T22:59:53.404Z,1.38
2022-10-04T23:02:29.403Z,1.67
2022-10-04T23:05:18.560Z,1.83
2022-10-04T23:07:47.381Z,3.10
2022-10-04T23:10:17.821Z,1.80
2022-10-04T23:12:47.865Z,1.30
2022-10-04T23:15:20.327Z,1.67
2022-10-04T23:17:54.507Z,1.60
2022-10-04T23:20:22.357Z,1.48
2022-10-04T23:22:52.929Z,1.90
2022-10-04T23:25:23.375Z,1.42
2022-10-04T23:27:50.809Z,1.58
2022-10-04T23:30:22.693Z,1.60
2022-10-04T23:32:53.443Z,1.67
2022-10-04T23:35:29.701Z,1.80
2022-10-04T23:37:57.259Z,1.52
2022-10-04T23:40:25.762Z,1.75
2022-10-04T23:42:56.538Z,1.65
2022-10-04T23:45:25.357Z,2.17
2022-10-04T23:47:55.786Z,1.58
2022-10-04T23:50:29.726Z,1.30
2022-10-04T23:53:04.480Z,1.48
2022-10-04T23:55:41.765Z,1.00
2022-10-04T23:58:22.421Z,1.73
